Time;durP1;ratioP1;P1;durP2;ratioP2;P2;SDS_P1;SDS_P2;PMS_P1;PMS_P2;Temp;Humidity;BMP_temperature;BMP_pressure;BME280_temperature;BME280_humidity;BME280_pressure;Samples;Min_cycle;Max_cycle;Signal;HPM_P1;HPM_P2
2022/09/01 00:01:02;;;;;;;12.77;9.77;;;14.80;99.90;;;;;;4986794;28;20192;-34
2022/09/01 00:03:28;;;;;;;11.93;9.37;;;14.90;99.90;;;;;;4993029;28;20589;-34
2022/09/01 00:05:55;;;;;;;9.73;8.73;;;15.00;99.90;;;;;;4991345;28;20211;-35
2022/09/01 00:08:22;;;;;;;9.97;9.03;;;15.00;99.90;;;;;;4991144;28;20666;-34
2022/09/01 00:10:49;;;;;;;13.50;8.70;;;14.90;99.90;;;;;;4991463;28;20188;-34
2022/09/01 00:13:16;;;;;;;10.90;8.63;;;14.80;99.90;;;;;;4991372;28;20187;-35
2022/09/01 00:15:42;;;;;;;8.87;7.97;;;14.70;99.90;;;;;;4991427;28;20172;-35
2022/09/01 00:18:08;;;;;;;9.07;8.07;;;14.70;99.90;;;;;;4990792;28;20302;-35
2022/09/01 00:20:34;;;;;;;11.07;8.07;;;14.70;99.90;;;;;;4987838;28;20272;-36
2022/09/01 00:23:00;;;;;;;9.20;7.60;;;14.70;99.90;;;;;;4974123;28;20195;-35
2022/09/01 00:25:27;;;;;;;9.80;8.20;;;14.80;99.90;;;;;;4991303;28;20188;-35
2022/09/01 00:27:54;;;;;;;11.47;8.03;;;14.80;99.90;;;;;;4990908;28;20215;-35
2022/09/01 00:30:20;;;;;;;9.90;8.90;;;14.80;99.90;;;;;;4991171;28;20188;-35
2022/09/01 00:32:47;;;;;;;9.93;8.70;;;14.80;99.90;;;;;;4971483;28;20199;-34
2022/09/01 00:35:16;;;;;;;11.63;9.80;;;14.90;99.90;;;;;;4971232;28;20189;-34
2022/09/01 00:37:42;;;;;;;11.93;8.80;;;14.80;99.90;;;;;;4980964;28;20208;-35
2022/09/01 00:40:10;;;;;;;12.60;9.33;;;14.80;99.90;;;;;;4987738;28;20232;-35
2022/09/01 00:42:38;;;;;;;11.93;10.17;;;14.90;99.90;;;;;;4988897;28;20188;-34
2022/09/01 00:45:06;;;;;;;11.90;10.37;;;15.00;99.90;;;;;;4974896;28;20176;-35
2022/09/01 00:47:34;;;;;;;11.27;9.27;;;15.00;99.90;;;;;;4970283;28;20177;-34
2022/09/01 00:50:03;;;;;;;12.50;11.00;;;15.00;99.90;;;;;;4993214;28;20234;-34
2022/09/01 00:52:40;;;;;;;13.93;12.23;;;15.00;99.90;;;;;;4990586;28;20187;-35
2022/09/01 00:55:14;;;;;;;12.93;11.60;;;15.00;99.90;;;;;;4975034;28;20184;-35
2022/09/01 00:57:41;;;;;;;25.63;12.07;;;15.00;99.90;;;;;;4973876;28;20211;-34
2022/09/01 01:00:22;;;;;;;17.13;12.93;;;15.00;99.90;;;;;;4987645;28;20192;-35
2022/09/01 01:02:54;;;;;;;12.40;11.20;;;15.10;99.90;;;;;;4984984;28;20187;-36
2022/09/01 01:05:41;;;;;;;18.13;11.13;;;15.10;99.90;;;;;;4990479;28;20188;-35
2022/09/01 01:08:08;;;;;;;12.77;10.60;;;15.10;99.90;;;;;;4986872;28;20219;-35
2022/09/01 01:10:40;;;;;;;14.43;10.10;;;15.00;99.90;;;;;;4983297;28;20191;-35
2022/09/01 01:13:13;;;;;;;18.30;11.80;;;15.00;99.90;;;;;;4995314;28;20666;-34
2022/09/01 01:15:42;;;;;;;20.27;13.57;;;15.00;99.90;;;;;;4990542;28;20242;-35
2022/09/01 01:18:13;;;;;;;20.90;13.67;;;14.90;99.90;;;;;;4992826;28;20207;-35
2022/09/01 01:23:35;;;;;;;26.43;12.73;;;14.90;99.90;;;;;;4991116;28;20641;-37
2022/09/01 01:26:05;;;;;;;13.33;11.87;;;14.90;99.90;;;;;;4974248;28;20179;-34
2022/09/01 01:28:34;;;;;;;32.33;13.07;;;14.90;99.90;;;;;;4989823;28;20226;-35
2022/09/01 01:31:14;;;;;;;17.27;12.83;;;14.90;99.90;;;;;;4974028;28;20195;-34
2022/09/01 01:33:52;;;;;;;13.67;11.87;;;14.90;99.90;;;;;;4989943;28;20187;-34
2022/09/01 01:36:31;;;;;;;13.00;11.00;;;14.90;99.90;;;;;;4987857;28;20208;-35
2022/09/01 01:39:02;;;;;;;16.93;11.53;;;14.90;99.90;;;;;;4997090;28;20203;-35
2022/09/01 01:41:32;;;;;;;13.27;11.30;;;14.90;99.90;;;;;;4980455;28;20180;-34
2022/09/01 01:44:03;;;;;;;27.00;12.87;;;15.00;99.90;;;;;;4965776;28;20179;-34
2022/09/01 01:46:31;;;;;;;13.07;11.67;;;15.00;99.90;;;;;;4991682;28;20176;-34
2022/09/01 01:48:57;;;;;;;27.90;13.43;;;15.00;99.90;;;;;;4999672;28;20294;-34
2022/09/01 01:51:27;;;;;;;21.73;11.10;;;15.00;99.90;;;;;;4986350;28;20222;-35
2022/09/01 01:53:54;;;;;;;17.50;12.67;;;15.00;99.90;;;;;;4985046;28;20187;-34
2022/09/01 01:56:25;;;;;;;18.97;11.77;;;15.00;99.90;;;;;;5002329;28;20207;-35
2022/09/01 01:58:56;;;;;;;16.90;12.93;;;14.90;99.90;;;;;;5018825;28;20196;-34
2022/09/01 02:01:27;;;;;;;13.60;11.87;;;14.90;99.90;;;;;;5018822;28;20300;-36
2022/09/01 02:03:55;;;;;;;11.93;10.80;;;15.00;99.90;;;;;;4985643;28;20175;-35
2022/09/01 02:06:24;;;;;;;17.83;12.07;;;15.00;99.90;;;;;;5004155;28;20242;-34
2022/09/01 02:08:57;;;;;;;41.33;11.87;;;15.00;99.90;;;;;;4977865;28;20199;-35
2022/09/01 02:11:26;;;;;;;14.37;11.20;;;15.00;99.90;;;;;;4989999;28;20177;-34
2022/09/01 02:13:57;;;;;;;15.90;12.10;;;14.90;99.90;;;;;;4986636;28;20191;-34
2022/09/01 02:16:27;;;;;;;16.87;12.10;;;15.00;99.90;;;;;;4993236;28;20211;-34
2022/09/01 02:18:53;;;;;;;20.20;10.57;;;15.00;99.90;;;;;;4993245;28;20203;-34
2022/09/01 02:21:22;;;;;;;10.83;9.37;;;15.00;99.90;;;;;;4992983;28;20183;-35
2022/09/01 02:23:59;;;;;;;10.47;9.33;;;15.00;99.90;;;;;;4990493;28;20191;-34
2022/09/01 02:26:30;;;;;;;12.10;10.90;;;15.00;99.90;;;;;;4992977;28;20176;-34
2022/09/01 02:29:03;;;;;;;19.60;10.97;;;15.00;99.90;;;;;;4977260;28;20203;-35
2022/09/01 02:31:34;;;;;;;21.37;10.83;;;15.00;99.90;;;;;;4993415;28;20648;-36
2022/09/01 02:34:01;;;;;;;27.80;11.10;;;15.00;99.90;;;;;;4961842;28;20180;-37
2022/09/01 02:36:27;;;;;;;10.43;9.43;;;14.90;99.90;;;;;;4976528;28;20204;-35
2022/09/01 02:38:54;;;;;;;17.73;9.40;;;14.90;99.90;;;;;;4994426;28;20259;-34
2022/09/01 02:41:22;;;;;;;15.87;10.10;;;14.80;99.90;;;;;;4977047;28;20175;-35
2022/09/01 02:43:49;;;;;;;14.47;9.87;;;14.80;99.90;;;;;;4993206;28;20184;-35
2022/09/01 02:46:15;;;;;;;13.30;10.33;;;14.70;99.90;;;;;;4992803;28;20184;-35
2022/09/01 02:48:44;;;;;;;15.67;10.80;;;14.70;99.90;;;;;;4988945;28;20255;-37
2022/09/01 02:51:19;;;;;;;36.27;13.50;;;14.60;99.90;;;;;;4988321;28;20180;-34
2022/09/01 02:53:51;;;;;;;15.87;11.97;;;14.60;99.90;;;;;;4976445;28;20187;-35
2022/09/01 02:56:21;;;;;;;14.20;12.50;;;14.60;99.90;;;;;;4992856;28;20200;-35
2022/09/01 02:58:49;;;;;;;14.83;11.77;;;14.60;99.90;;;;;;4972556;28;20223;-35
2022/09/01 03:01:21;;;;;;;16.57;11.83;;;14.60;99.90;;;;;;4973549;28;20204;-34
2022/09/01 03:03:49;;;;;;;18.90;13.00;;;14.60;99.90;;;;;;4989708;28;20184;-35
2022/09/01 03:06:18;;;;;;;13.67;12.27;;;14.60;99.90;;;;;;4992701;28;20225;-35
2022/09/01 03:08:45;;;;;;;16.43;13.87;;;14.60;99.90;;;;;;4976307;28;20246;-36
2022/09/01 03:11:12;;;;;;;15.63;13.37;;;14.60;99.90;;;;;;4992361;28;20231;-35
2022/09/01 03:13:40;;;;;;;15.90;14.13;;;14.60;99.90;;;;;;4992590;28;20191;-34
2022/09/01 03:16:07;;;;;;;19.07;14.80;;;14.60;99.90;;;;;;4976345;28;20195;-34
2022/09/01 03:18:34;;;;;;;14.70;13.23;;;14.60;99.90;;;;;;4976037;28;20200;-34
2022/09/01 03:21:02;;;;;;;18.83;15.27;;;14.60;99.90;;;;;;4994052;28;20177;-37
2022/09/01 03:23:30;;;;;;;16.77;14.97;;;14.70;99.90;;;;;;4992523;28;20168;-34
2022/09/01 03:25:57;;;;;;;15.90;14.30;;;14.70;99.90;;;;;;4988881;28;20252;-34
2022/09/01 03:28:23;;;;;;;16.57;14.93;;;14.70;99.90;;;;;;4973228;28;20658;-35
2022/09/01 03:30:52;;;;;;;17.50;15.80;;;14.70;99.90;;;;;;4980647;28;20187;-34
2022/09/01 03:33:20;;;;;;;17.37;14.30;;;14.70;99.90;;;;;;4992064;28;20190;-34
2022/09/01 03:35:47;;;;;;;15.20;13.60;;;14.70;99.90;;;;;;4992368;28;20187;-34
2022/09/01 03:38:20;;;;;;;14.57;13.10;;;14.80;99.90;;;;;;4991796;28;20219;-36
2022/09/01 03:40:52;;;;;;;13.37;11.90;;;14.70;99.90;;;;;;4988315;28;20172;-34
2022/09/01 03:43:22;;;;;;;12.37;11.27;;;14.70;99.90;;;;;;4982320;28;20290;-34
2022/09/01 03:45:48;;;;;;;13.40;12.03;;;14.70;99.90;;;;;;4991604;28;20168;-35
2022/09/01 03:48:15;;;;;;;13.93;11.60;;;14.70;99.90;;;;;;4992046;28;20239;-34
2022/09/01 03:50:46;;;;;;;14.10;12.07;;;14.60;99.90;;;;;;4975546;28;20184;-34
2022/09/01 03:53:21;;;;;;;15.33;12.03;;;14.60;99.90;;;;;;4974245;28;20192;-34
2022/09/01 03:55:48;;;;;;;13.57;12.27;;;14.60;99.90;;;;;;4983281;28;20188;-34
2022/09/01 03:58:17;;;;;;;13.60;11.90;;;14.60;99.90;;;;;;4991514;28;20678;-34
2022/09/01 04:00:48;;;;;;;15.57;12.10;;;14.60;99.90;;;;;;4974256;28;20187;-34
2022/09/01 04:03:20;;;;;;;12.70;11.50;;;14.60;99.90;;;;;;4991760;28;20177;-35
2022/09/01 04:05:46;;;;;;;13.00;11.80;;;14.60;99.90;;;;;;4991478;28;20204;-34
2022/09/01 04:08:12;;;;;;;14.27;12.87;;;14.60;99.90;;;;;;4974939;28;20199;-34
2022/09/01 04:10:46;;;;;;;12.90;11.33;;;14.60;99.90;;;;;;4971071;28;20238;-35
2022/09/01 04:13:12;;;;;;;15.20;11.07;;;14.70;99.90;;;;;;4990499;28;20195;-34
2022/09/01 04:15:38;;;;;;;32.47;11.57;;;14.60;99.90;;;;;;4975105;28;20212;-34
2022/09/01 04:18:18;;;;;;;12.50;11.30;;;14.60;99.90;;;;;;4990664;28;20251;-35
2022/09/01 04:20:56;;;;;;;12.70;11.50;;;14.60;99.90;;;;;;4974824;28;20230;-34
2022/09/01 04:23:29;;;;;;;15.47;13.57;;;14.50;99.90;;;;;;4991531;28;20280;-34
2022/09/01 04:25:58;;;;;;;15.03;13.63;;;14.40;99.90;;;;;;4975865;28;20198;-34
2022/09/01 04:28:33;;;;;;;23.70;15.50;;;14.40;99.90;;;;;;4986974;28;20201;-36
2022/09/01 04:31:04;;;;;;;16.47;14.70;;;14.40;99.90;;;;;;4980515;28;20206;-34
2022/09/01 04:33:38;;;;;;;15.17;13.63;;;14.40;99.90;;;;;;4990746;28;20180;-34
2022/09/01 04:36:18;;;;;;;16.60;15.00;;;14.40;99.90;;;;;;4990682;28;20189;-35
2022/09/01 04:38:47;;;;;;;15.83;14.30;;;14.40;99.90;;;;;;4973955;28;20195;-34
2022/09/01 04:41:16;;;;;;;16.73;15.03;;;14.40;99.90;;;;;;4990675;28;20215;-34
2022/09/01 04:43:47;;;;;;;17.60;15.83;;;14.40;99.90;;;;;;4974161;28;20227;-34
2022/09/01 04:46:14;;;;;;;16.17;14.47;;;14.50;99.90;;;;;;4974783;28;20195;-35
2022/09/01 04:48:42;;;;;;;17.03;15.37;;;14.50;99.90;;;;;;4973664;28;20211;-34
2022/09/01 04:51:09;;;;;;;15.10;13.70;;;14.50;99.90;;;;;;4974680;28;20176;-34
2022/09/01 04:53:49;;;;;;;16.37;14.73;;;14.50;99.90;;;;;;4992642;28;20231;-36
2022/09/01 04:56:18;;;;;;;18.40;15.40;;;14.50;99.90;;;;;;4973909;28;20196;-34
2022/09/01 04:58:46;;;;;;;16.93;15.33;;;14.50;99.90;;;;;;4971691;28;20296;-34
2022/09/01 05:01:19;;;;;;;15.30;13.87;;;14.60;99.90;;;;;;4964486;28;20214;-34
2022/09/01 05:03:47;;;;;;;17.40;15.70;;;14.60;99.90;;;;;;4974044;28;20234;-34
2022/09/01 05:06:33;;;;;;;16.37;14.77;;;14.50;99.90;;;;;;4990204;28;20226;-34
2022/09/01 05:08:59;;;;;;;16.47;14.77;;;14.60;99.90;;;;;;4990403;28;20204;-34
2022/09/01 05:11:43;;;;;;;17.70;15.80;;;14.60;99.90;;;;;;4990347;28;20184;-34
2022/09/01 05:14:19;;;;;;;18.47;16.63;;;14.70;99.90;;;;;;4983222;28;20203;-34
2022/09/01 05:16:46;;;;;;;18.43;16.57;;;14.70;99.90;;;;;;4974028;28;20219;-35
2022/09/01 05:19:16;;;;;;;18.93;16.93;;;14.70;99.90;;;;;;4990318;28;20290;-34
2022/09/01 05:21:45;;;;;;;18.83;16.83;;;14.80;99.90;;;;;;4980553;28;20208;-34
2022/09/01 05:24:14;;;;;;;18.20;16.30;;;14.80;99.90;;;;;;4982253;28;20181;-35
2022/09/01 05:26:43;;;;;;;19.80;17.70;;;14.70;99.90;;;;;;4970559;28;20185;-35
2022/09/01 05:29:12;;;;;;;19.07;17.27;;;14.80;99.90;;;;;;4988331;28;20315;-34
2022/09/01 05:31:41;;;;;;;19.73;17.83;;;14.80;99.90;;;;;;4974008;28;20191;-34
2022/09/01 05:34:11;;;;;;;18.07;16.10;;;14.80;99.90;;;;;;4987010;28;20183;-34
2022/09/01 05:36:41;;;;;;;18.43;16.63;;;14.80;99.90;;;;;;4970497;28;20232;-34
2022/09/01 05:39:12;;;;;;;18.03;16.23;;;14.80;99.90;;;;;;4954599;28;20214;-35
2022/09/01 05:41:39;;;;;;;20.93;17.33;;;14.80;99.90;;;;;;4954717;28;20184;-36
2022/09/01 05:44:07;;;;;;;17.97;16.17;;;14.80;99.90;;;;;;4975108;28;20199;-34
2022/09/01 05:46:37;;;;;;;19.07;17.13;;;14.90;99.90;;;;;;4978866;28;20189;-34
2022/09/01 05:49:05;;;;;;;17.87;15.97;;;14.90;99.90;;;;;;4985300;28;20219;-34
2022/09/01 05:51:36;;;;;;;19.17;17.17;;;14.90;99.90;;;;;;4974155;28;20187;-34
2022/09/01 05:54:06;;;;;;;19.40;17.50;;;14.90;99.90;;;;;;4971263;28;20185;-34
2022/09/01 05:56:38;;;;;;;19.80;17.80;;;14.90;99.90;;;;;;4968536;28;20239;-34
2022/09/01 05:59:04;;;;;;;20.37;17.50;;;15.00;99.90;;;;;;4973182;28;20196;-34
2022/09/01 06:01:32;;;;;;;18.30;16.40;;;14.90;99.90;;;;;;4985327;28;20243;-34
2022/09/01 06:04:03;;;;;;;18.73;16.70;;;15.00;99.90;;;;;;4980297;28;20172;-34
2022/09/01 06:06:49;;;;;;;18.90;16.90;;;15.00;99.90;;;;;;4969980;28;20267;-34
2022/09/01 06:09:18;;;;;;;19.50;17.20;;;15.00;99.90;;;;;;4988716;28;20286;-35
2022/09/01 06:11:46;;;;;;;19.17;17.27;;;15.00;99.90;;;;;;4981501;28;20212;-34
2022/09/01 06:14:14;;;;;;;21.03;18.83;;;15.00;99.90;;;;;;4981179;28;20173;-34
2022/09/01 06:16:42;;;;;;;18.73;16.90;;;15.00;99.90;;;;;;4978126;28;20295;-37
2022/09/01 06:19:09;;;;;;;20.03;17.97;;;15.10;99.90;;;;;;4977679;28;20201;-34
2022/09/01 06:21:41;;;;;;;18.97;16.97;;;15.10;99.90;;;;;;4971330;28;20272;-35
2022/09/01 06:24:07;;;;;;;22.47;17.93;;;15.20;99.90;;;;;;4978448;28;20173;-34
2022/09/01 06:26:36;;;;;;;18.70;16.83;;;15.10;99.90;;;;;;4955885;28;20199;-35
2022/09/01 06:29:14;;;;;;;18.40;16.50;;;15.10;99.90;;;;;;4972763;28;20207;-34
2022/09/01 06:31:50;;;;;;;18.97;16.97;;;15.10;99.90;;;;;;4974136;28;20187;-34
2022/09/01 06:34:17;;;;;;;22.47;16.57;;;15.20;99.90;;;;;;4975117;28;20184;-34
2022/09/01 06:36:47;;;;;;;18.40;16.50;;;15.10;99.90;;;;;;4977207;28;20266;-34
2022/09/01 06:39:20;;;;;;;16.37;14.67;;;15.20;99.90;;;;;;4976915;28;20200;-34
2022/09/01 06:41:54;;;;;;;16.67;14.97;;;15.20;99.90;;;;;;4977286;28;20283;-34
2022/09/01 06:44:26;;;;;;;19.10;17.20;;;15.20;99.90;;;;;;4992701;28;20184;-34
2022/09/01 06:47:00;;;;;;;16.23;14.53;;;15.10;99.90;;;;;;4990532;28;20279;-35
2022/09/01 06:49:35;;;;;;;16.77;15.00;;;15.00;99.90;;;;;;4989460;28;20298;-35
2022/09/01 06:52:08;;;;;;;19.73;17.77;;;15.00;99.90;;;;;;4977768;28;20267;-36
2022/09/01 06:54:37;;;;;;;20.27;18.23;;;15.00;99.90;;;;;;4994078;28;20203;-34
2022/09/01 06:57:04;;;;;;;20.43;18.27;;;15.00;99.90;;;;;;5000022;28;20210;-34
2022/09/01 06:59:31;;;;;;;21.77;19.47;;;15.00;99.90;;;;;;5001812;28;20193;-35
2022/09/01 07:02:00;;;;;;;19.93;17.93;;;15.00;99.90;;;;;;5017613;28;20250;-35
2022/09/01 07:04:42;;;;;;;20.63;18.43;;;15.10;99.90;;;;;;4994495;28;20187;-35
2022/09/01 07:07:09;;;;;;;21.93;19.47;;;15.10;99.90;;;;;;4965184;28;20184;-35
2022/09/01 07:10:05;;;;;;;23.63;20.93;;;15.20;99.90;;;;;;4968362;28;20181;-35
2022/09/01 07:12:40;;;;;;;21.57;19.37;;;15.20;99.90;;;;;;4965943;28;20277;-35
2022/09/01 07:15:07;;;;;;;21.70;19.50;;;15.20;99.90;;;;;;4963895;28;20172;-34
2022/09/01 07:17:33;;;;;;;19.83;17.83;;;15.30;99.90;;;;;;4986548;28;20208;-35
2022/09/01 07:19:59;;;;;;;20.30;18.13;;;15.40;99.90;;;;;;4986144;28;20184;-36
2022/09/01 07:22:25;;;;;;;20.17;18.17;;;15.40;99.90;;;;;;4970830;28;20215;-35
2022/09/01 07:24:56;;;;;;;20.03;18.03;;;15.50;99.90;;;;;;4988826;28;20179;-35
2022/09/01 07:27:49;;;;;;;22.53;18.93;;;15.50;99.90;;;;;;4994999;28;20211;-35
2022/09/01 07:30:17;;;;;;;21.77;18.53;;;15.70;99.90;;;;;;4992173;28;20176;-35
2022/09/01 07:32:45;;;;;;;19.93;17.93;;;15.70;99.90;;;;;;4973302;28;20230;-35
2022/09/01 07:35:13;;;;;;;20.40;18.20;;;15.80;99.90;;;;;;4991854;28;20262;-39
2022/09/01 07:37:40;;;;;;;18.90;16.97;;;15.90;99.90;;;;;;4976124;28;20208;-38
2022/09/01 07:40:09;;;;;;;18.87;16.77;;;15.90;99.90;;;;;;4975189;28;20203;-37
2022/09/01 07:43:14;;;;;;;19.17;17.27;;;16.00;99.90;;;;;;4992317;28;20263;-38
2022/09/01 07:46:04;;;;;;;17.70;15.80;;;16.20;99.90;;;;;;4991163;28;20723;-37
2022/09/01 07:48:30;;;;;;;17.43;15.63;;;16.30;99.90;;;;;;5049615;23;20314;-30
2022/09/01 07:50:56;;;;;;;19.00;17.10;;;16.40;99.90;;;;;;5049649;28;20324;-29
2022/09/01 07:53:31;;;;;;;16.27;14.57;;;16.50;99.90;;;;;;5017714;28;20178;-29
2022/09/01 07:56:08;;;;;;;15.37;13.90;;;16.70;99.90;;;;;;5050786;28;20324;-29
2022/09/01 07:58:40;;;;;;;16.20;14.63;;;16.90;99.90;;;;;;5016475;28;20316;-29
2022/09/01 08:01:18;;;;;;;16.00;12.87;;;17.10;99.90;;;;;;5033948;28;20174;-29
2022/09/01 08:03:48;;;;;;;15.23;13.63;;;17.30;99.90;;;;;;5018231;28;20189;-29
2022/09/01 08:06:20;;;;;;;13.75;12.40;;;17.40;99.90;;;;;;5018001;28;20185;-30
2022/09/01 08:08:50;;;;;;;14.45;13.00;;;17.60;99.90;;;;;;5052304;28;20201;-28
2022/09/01 08:11:23;;;;;;;14.73;13.32;;;17.70;99.90;;;;;;5034296;28;20249;-28
2022/09/01 08:13:53;;;;;;;14.65;13.15;;;17.80;99.90;;;;;;5034880;28;20161;-29
2022/09/01 08:16:20;;;;;;;12.95;11.65;;;18.00;99.90;;;;;;5018969;28;20639;-28
2022/09/01 08:18:48;;;;;;;14.95;13.55;;;18.20;99.90;;;;;;5018908;28;20225;-29
2022/09/01 08:21:25;;;;;;;13.32;12.02;;;18.40;99.90;;;;;;5034584;28;20182;-28
2022/09/01 08:24:18;;;;;;;12.10;10.95;;;18.60;99.90;;;;;;5006872;28;20167;-29
2022/09/01 08:26:44;;;;;;;12.90;11.60;;;18.70;99.90;;;;;;5023227;28;20178;-30
2022/09/01 08:29:10;;;;;;;12.65;11.38;;;18.90;99.90;;;;;;5009413;28;20193;-27
2022/09/01 08:31:40;;;;;;;13.02;11.68;;;19.10;99.90;;;;;;5020102;28;20269;-29
2022/09/01 08:34:07;;;;;;;13.10;11.77;;;19.20;99.90;;;;;;5009542;28;20174;-30
2022/09/01 08:36:33;;;;;;;13.35;11.95;;;19.20;99.90;;;;;;5012106;28;20209;-31
2022/09/01 08:39:00;;;;;;;10.38;9.38;;;19.30;99.90;;;;;;5004416;28;20298;-28
2022/09/01 08:41:51;;;;;;;10.00;9.00;;;19.50;99.90;;;;;;5018234;28;20174;-30
2022/09/01 08:44:45;;;;;;;10.10;9.20;;;19.80;99.90;;;;;;5034800;28;20200;-29
2022/09/01 08:47:17;;;;;;;9.00;8.10;;;19.90;99.90;;;;;;5036706;28;20235;-30
2022/09/01 08:49:45;;;;;;;9.40;8.43;;;20.00;99.90;;;;;;5040229;28;20210;-30
2022/09/01 08:52:27;;;;;;;8.52;7.68;;;20.30;99.90;;;;;;5024114;28;20175;-28
2022/09/01 08:55:01;;;;;;;8.50;7.70;;;20.40;99.90;;;;;;5021551;28;20268;-29
2022/09/01 08:57:38;;;;;;;7.65;6.78;;;20.60;99.90;;;;;;5008453;28;20310;-29
2022/09/01 09:00:23;;;;;;;7.53;6.82;;;20.80;99.90;;;;;;5043618;28;20225;-29
2022/09/01 09:03:12;;;;;;;8.77;7.28;;;20.90;99.90;;;;;;5028453;28;20200;-29
2022/09/01 09:06:01;;;;;;;7.43;6.53;;;21.00;99.90;;;;;;5015018;28;20182;-29
2022/09/01 09:08:30;;;;;;;8.02;7.32;;;21.10;99.90;;;;;;5020020;28;20171;-29
2022/09/01 09:11:08;;;;;;;7.32;6.63;;;21.00;99.90;;;;;;5040459;28;20189;-30
2022/09/01 09:13:59;;;;;;;6.45;5.15;;;21.10;99.90;;;;;;5022267;28;20256;-31
2022/09/01 09:16:37;;;;;;;7.28;6.57;;;21.20;99.90;;;;;;5024473;28;20178;-29
2022/09/01 09:19:30;;;;;;;6.80;6.20;;;21.00;99.90;;;;;;5031722;28;20201;-31
2022/09/01 09:22:01;;;;;;;6.68;5.78;;;21.10;99.90;;;;;;5042673;28;20276;-30
2022/09/01 09:24:48;;;;;;;5.18;4.50;;;21.00;99.90;;;;;;5029789;28;20175;-31
2022/09/01 09:27:24;;;;;;;5.38;4.88;;;21.20;99.90;;;;;;5013060;28;20185;-32
2022/09/01 09:29:54;;;;;;;6.05;5.45;;;21.40;99.90;;;;;;5000480;28;20289;-31
2022/09/01 09:32:23;;;;;;;4.90;4.50;;;21.60;99.90;;;;;;5005363;28;20670;-31
2022/09/01 09:34:50;;;;;;;5.05;4.65;;;21.70;99.90;;;;;;5040832;28;20174;-30
2022/09/01 09:37:30;;;;;;;5.50;4.88;;;21.80;99.90;;;;;;5021632;28;20241;-31
2022/09/01 09:40:02;;;;;;;6.13;5.05;;;21.80;99.90;;;;;;5027234;28;20304;-31
2022/09/01 09:42:28;;;;;;;5.93;5.28;;;22.10;99.90;;;;;;5012982;28;20205;-28
2022/09/01 09:44:55;;;;;;;5.28;4.78;;;22.20;99.90;;;;;;5029539;28;20198;-30
2022/09/01 09:47:47;;;;;;;6.50;5.38;;;22.00;99.90;;;;;;5012488;28;20182;-31
2022/09/01 09:50:16;;;;;;;5.88;5.38;;;22.00;99.90;;;;;;5026400;28;20218;-30
2022/09/01 09:52:45;;;;;;;6.22;5.68;;;22.10;99.90;;;;;;5029441;28;20174;-31
2022/09/01 09:55:30;;;;;;;5.97;5.38;;;22.00;99.90;;;;;;5012425;28;20187;-29
2022/09/01 09:57:58;;;;;;;5.35;4.88;;;21.80;99.90;;;;;;5012532;28;20253;-29
2022/09/01 10:00:26;;;;;;;4.80;4.40;;;22.10;99.90;;;;;;5013943;28;20248;-30
2022/09/01 10:03:06;;;;;;;4.95;4.53;;;22.30;99.90;;;;;;5030592;28;20308;-29
2022/09/01 10:05:52;;;;;;;5.70;4.43;;;22.30;99.90;;;;;;5022483;28;20206;-29
2022/09/01 10:08:33;;;;;;;6.10;4.50;;;22.50;99.90;;;;;;5020397;28;20240;-29
2022/09/01 10:10:59;;;;;;;5.90;4.93;;;22.70;99.90;;;;;;5027417;28;20178;-31
2022/09/01 10:13:30;;;;;;;5.47;4.47;;;23.00;99.90;;;;;;5025773;28;20189;-30
2022/09/01 10:16:00;;;;;;;5.25;4.45;;;23.20;99.90;;;;;;5045945;28;20178;-30
2022/09/01 10:18:43;;;;;;;5.07;4.07;;;23.30;99.90;;;;;;5026774;28;20209;-31
2022/09/01 10:21:17;;;;;;;5.40;4.20;;;23.60;99.90;;;;;;5009508;28;20217;-31
2022/09/01 10:23:43;;;;;;;6.38;4.63;;;24.00;99.90;;;;;;5024513;28;20170;-30
2022/09/01 10:26:23;;;;;;;5.35;4.30;;;24.10;99.90;;;;;;5024269;28;20232;-31
2022/09/01 10:29:01;;;;;;;3.92;3.50;;;23.90;99.90;;;;;;5025390;28;20240;-31
2022/09/01 10:31:28;;;;;;;4.90;3.72;;;23.90;99.90;;;;;;5043270;28;20229;-30
2022/09/01 10:33:54;;;;;;;5.07;3.22;;;23.70;99.90;;;;;;5009039;28;20232;-30
2022/09/01 10:36:21;;;;;;;4.80;3.90;;;23.60;99.90;;;;;;5010467;28;20170;-30
2022/09/01 10:38:48;;;;;;;3.75;3.30;;;23.30;99.90;;;;;;5008592;28;20261;-31
2022/09/01 10:41:49;;;;;;;4.13;3.58;;;23.50;99.90;;;;;;5024121;28;20198;-30
2022/09/01 10:44:32;;;;;;;4.10;3.05;;;23.60;99.90;;;;;;5026419;28;20267;-31
2022/09/01 10:47:32;;;;;;;3.05;2.85;;;23.60;99.90;;;;;;5026436;28;20173;-31
2022/09/01 10:49:59;;;;;;;3.17;2.85;;;23.80;99.90;;;;;;5044205;28;20289;-30
2022/09/01 10:52:53;;;;;;;3.17;2.97;;;23.80;99.90;;;;;;5021274;28;20174;-30
2022/09/01 10:55:44;;;;;;;3.08;2.88;;;23.90;99.90;;;;;;5027785;28;20198;-30
2022/09/01 10:58:32;;;;;;;2.80;2.60;;;23.80;99.90;;;;;;5005369;28;20212;-31
2022/09/01 11:01:01;;;;;;;2.97;2.78;;;23.60;99.90;;;;;;5018293;28;20315;-30
2022/09/01 11:03:53;;;;;;;3.33;3.03;;;23.20;99.90;;;;;;5025196;28;20193;-30
2022/09/01 11:06:32;;;;;;;2.75;2.55;;;23.20;99.90;;;;;;5018489;28;20222;-30
2022/09/01 11:09:04;;;;;;;3.15;2.95;;;23.30;99.90;;;;;;5034539;28;20194;-30
2022/09/01 11:12:10;;;;;;;3.03;2.83;;;23.30;99.90;;;;;;5035410;28;20174;-31
2022/09/01 11:14:52;;;;;;;3.00;2.70;;;23.40;99.90;;;;;;5026021;28;20185;-31
2022/09/01 11:17:20;;;;;;;3.72;2.60;;;23.60;99.90;;;;;;5036095;28;20236;-30
2022/09/01 11:19:59;;;;;;;2.72;2.53;;;23.70;99.90;;;;;;5018603;28;20209;-31
2022/09/01 11:22:32;;;;;;;2.97;2.70;;;23.80;99.90;;;;;;5035072;28;20213;-31
2022/09/01 11:25:08;;;;;;;2.78;2.58;;;23.80;99.90;;;;;;5012392;28;20171;-31
2022/09/01 11:27:49;;;;;;;2.67;2.47;;;24.00;99.90;;;;;;5026010;28;20255;-31
2022/09/01 11:30:35;;;;;;;3.10;2.72;;;24.00;99.90;;;;;;5031889;28;20672;-30
2022/09/01 11:33:16;;;;;;;3.65;2.75;;;24.10;99.90;;;;;;5015360;28;20178;-31
2022/09/01 11:35:44;;;;;;;2.80;2.60;;;24.30;99.90;;;;;;5032403;28;20189;-30
2022/09/01 11:38:13;;;;;;;3.90;2.65;;;24.40;99.90;;;;;;5034615;28;20213;-31
2022/09/01 11:40:40;;;;;;;3.10;2.75;;;24.40;99.90;;;;;;5017349;28;20201;-31
2022/09/01 11:43:15;;;;;;;4.65;3.00;;;24.30;99.90;;;;;;5034930;28;20238;-31
2022/09/01 11:46:11;;;;;;;5.53;3.25;;;24.30;99.90;;;;;;5052476;28;20295;-30
2022/09/01 11:48:38;;;;;;;3.10;2.90;;;24.20;99.90;;;;;;5017440;28;20705;-31
2022/09/01 11:51:04;;;;;;;3.53;3.05;;;24.10;99.90;;;;;;5017288;28;20189;-31
2022/09/01 11:53:31;;;;;;;3.40;3.10;;;24.20;99.90;;;;;;5033429;28;20185;-31
2022/09/01 11:56:31;;;;;;;3.00;2.80;;;24.30;99.90;;;;;;5023855;28;20186;-31
2022/09/01 11:58:57;;;;;;;3.35;2.78;;;24.30;99.90;;;;;;5004709;28;20257;-30
2022/09/01 12:01:32;;;;;;;3.15;2.80;;;24.30;99.90;;;;;;5008427;28;20175;-30
2022/09/01 12:04:21;;;;;;;3.20;2.90;;;24.20;99.90;;;;;;5005555;28;20181;-30
2022/09/01 12:06:55;;;;;;;3.47;3.08;;;24.10;99.90;;;;;;5024870;28;20277;-30
2022/09/01 12:09:21;;;;;;;4.72;3.03;;;23.80;99.90;;;;;;5025922;28;20235;-30
2022/09/01 12:11:47;;;;;;;2.88;2.67;;;23.70;99.90;;;;;;5014684;28;20205;-30
2022/09/01 12:14:20;;;;;;;2.55;2.35;;;23.80;99.90;;;;;;5051216;28;20170;-30
2022/09/01 12:16:59;;;;;;;3.00;2.80;;;24.00;99.90;;;;;;5032756;28;20279;-30
2022/09/01 12:19:29;;;;;;;3.00;2.80;;;24.20;99.90;;;;;;5030190;28;20202;-31
2022/09/01 12:22:02;;;;;;;2.97;2.78;;;24.50;99.90;;;;;;5016487;28;20201;-31
2022/09/01 12:24:33;;;;;;;3.03;2.70;;;24.80;99.90;;;;;;5016436;28;20174;-31
2022/09/01 12:27:00;;;;;;;3.50;2.67;;;24.90;99.90;;;;;;5016433;28;20197;-31
2022/09/01 12:29:27;;;;;;;2.78;2.58;;;25.20;99.90;;;;;;5016190;28;20269;-31
2022/09/01 12:31:54;;;;;;;3.10;2.90;;;25.40;99.90;;;;;;5015609;28;20284;-31
2022/09/01 12:34:26;;;;;;;2.80;2.60;;;25.40;99.90;;;;;;5016124;28;20200;-31
2022/09/01 12:37:09;;;;;;;3.30;2.70;;;25.40;99.90;;;;;;5015918;28;20288;-32
2022/09/01 12:39:46;;;;;;;3.58;2.65;;;25.40;99.90;;;;;;5016260;28;20233;-31
2022/09/01 12:42:18;;;;;;;3.20;2.90;;;25.30;99.90;;;;;;5050266;28;20644;-31
2022/09/01 12:44:52;;;;;;;3.85;2.75;;;25.50;99.90;;;;;;5029421;28;20175;-31
2022/09/01 12:47:34;;;;;;;3.17;2.88;;;25.70;99.90;;;;;;4998784;28;20196;-31
2022/09/01 12:50:02;;;;;;;2.60;2.40;;;25.70;99.90;;;;;;4973481;28;1193651;-31
2022/09/01 12:52:28;;;;;;;2.80;2.60;;;25.90;99.90;;;;;;5021256;28;20206;-31
2022/09/01 12:54:57;;;;;;;3.22;2.92;;;26.00;99.90;;;;;;5016801;28;20186;-31
2022/09/01 12:57:29;;;;;;;3.00;2.80;;;25.80;99.90;;;;;;5033166;28;20234;-31
2022/09/01 13:00:31;;;;;;;2.83;2.63;;;25.70;99.90;;;;;;5016353;28;20201;-31
2022/09/01 13:03:16;;;;;;;2.95;2.75;;;25.70;99.90;;;;;;5027175;28;20189;-31